createdAt,value
2022-10-02T00:00:56.911Z,0.00
2022-10-02T00:05:57.656Z,0.00
2022-10-02T00:10:58.562Z,0.00
2022-10-02T00:15:59.335Z,0.00
2022-10-02T00:21:00.206Z,0.00
2022-10-02T00:26:01.017Z,0.00
2022-10-02T00:31:01.745Z,0.00
2022-10-02T00:36:02.456Z,0.00
2022-10-02T00:41:03.176Z,0.00
2022-10-02T00:46:03.940Z,0.00
2022-10-02T00:51:04.722Z,0.00
2022-10-02T00:56:05.442Z,0.00
2022-10-02T01:01:06.240Z,0.00
2022-10-02T01:06:06.931Z,0.00
2022-10-02T01:11:07.626Z,0.00
2022-10-02T01:16:08.455Z,0.00
2022-10-02T01:21:09.176Z,0.00
2022-10-02T01:26:09.940Z,0.00
2022-10-02T01:31:10.831Z,0.00
2022-10-02T01:36:11.709Z,0.00
2022-10-02T01:41:12.474Z,0.00
2022-10-02T01:46:13.201Z,0.00
2022-10-02T01:51:13.847Z,0.00
2022-10-02T01:56:14.749Z,0.00
2022-10-02T02:01:15.592Z,0.00
2022-10-02T02:06:16.469Z,0.00
2022-10-02T02:11:17.138Z,0.00
2022-10-02T02:16:18.066Z,0.00
2022-10-02T02:21:21.955Z,0.00
2022-10-02T02:26:19.427Z,0.00
2022-10-02T02:31:20.295Z,0.00
2022-10-02T02:36:21.062Z,0.00
2022-10-02T02:41:21.876Z,0.00
2022-10-02T02:46:22.747Z,0.00
2022-10-02T02:51:23.546Z,0.00
2022-10-02T02:56:24.408Z,0.00
2022-10-02T03:01:25.159Z,0.00
2022-10-02T03:06:26.016Z,0.00
2022-10-02T03:11:26.839Z,0.00
2022-10-02T03:16:27.600Z,0.00
2022-10-02T03:21:28.378Z,0.00
2022-10-02T03:26:29.032Z,0.00
2022-10-02T03:31:29.976Z,0.00
2022-10-02T03:36:30.818Z,0.00
2022-10-02T03:41:31.638Z,0.00
2022-10-02T03:46:32.521Z,0.00
2022-10-02T03:51:33.257Z,0.00
2022-10-02T03:56:34.395Z,0.00
2022-10-02T04:01:34.963Z,0.00
2022-10-02T04:06:36.026Z,0.00
2022-10-02T04:11:36.524Z,0.00
2022-10-02T04:16:37.758Z,0.00
2022-10-02T04:21:38.075Z,0.00
2022-10-02T04:26:39.194Z,0.00
2022-10-02T04:31:39.622Z,0.00
2022-10-02T04:36:40.340Z,0.00
2022-10-02T04:41:41.152Z,0.00
2022-10-02T04:46:41.826Z,8.00
2022-10-02T04:51:42.452Z,4.00
2022-10-02T04:56:43.162Z,3.00
2022-10-02T05:01:43.941Z,10.00
2022-10-02T05:06:44.602Z,11.00
2022-10-02T05:11:45.337Z,30.00
2022-10-02T05:16:46.051Z,90.00
2022-10-02T05:21:46.705Z,146.00
2022-10-02T05:26:47.377Z,223.00
2022-10-02T05:31:48.213Z,264.00
2022-10-02T05:36:48.868Z,344.00
2022-10-02T05:41:49.606Z,397.00
2022-10-02T05:46:50.499Z,402.00
2022-10-02T05:51:51.133Z,472.00
2022-10-02T05:56:51.842Z,535.00
2022-10-02T06:01:52.520Z,631.00
2022-10-02T06:06:53.318Z,1176.00
2022-10-02T06:11:53.961Z,1457.00
2022-10-02T06:16:54.799Z,1160.00
2022-10-02T06:21:55.499Z,1134.00
2022-10-02T06:27:03.168Z,965.00
2022-10-02T06:31:56.926Z,807.00
2022-10-02T06:36:57.610Z,816.00
2022-10-02T06:41:58.305Z,825.00
2022-10-02T06:46:59.013Z,1120.00
2022-10-02T06:51:59.797Z,1228.00
2022-10-02T06:57:00.469Z,1266.00
2022-10-02T07:02:01.225Z,2000.00
2022-10-02T07:07:01.875Z,1452.00
2022-10-02T07:12:02.545Z,648.00
2022-10-02T07:17:03.235Z,2195.00
2022-10-02T07:22:20.219Z,2246.00
2022-10-02T07:27:05.480Z,1602.00
2022-10-02T07:32:05.166Z,1184.00
2022-10-02T07:37:05.863Z,2602.00
2022-10-02T07:42:06.633Z,2645.00
2022-10-02T07:47:07.312Z,3118.00
2022-10-02T07:52:07.967Z,2447.00
2022-10-02T07:57:10.001Z,3071.00
2022-10-02T08:02:09.330Z,705.00
2022-10-02T08:07:10.052Z,4544.00
2022-10-02T08:12:10.699Z,5628.00
2022-10-02T08:17:11.391Z,5053.00
2022-10-02T08:22:12.027Z,3968.00
2022-10-02T08:27:12.918Z,1503.00
2022-10-02T08:32:13.594Z,4846.00
2022-10-02T08:37:14.178Z,2538.00
2022-10-02T08:42:14.842Z,3953.00
2022-10-02T08:47:15.511Z,3666.00
2022-10-02T08:52:16.192Z,2115.00
2022-10-02T08:57:16.843Z,4241.00
2022-10-02T09:02:17.565Z,4415.00
2022-10-02T09:07:18.322Z,3848.00
2022-10-02T09:12:18.978Z,3912.00
2022-10-02T09:17:19.642Z,4221.00
2022-10-02T09:22:20.358Z,2557.00
2022-10-02T09:27:20.979Z,3079.00
2022-10-02T09:32:21.839Z,2906.00
2022-10-02T09:37:22.679Z,2867.00
2022-10-02T09:42:23.541Z,3123.00
2022-10-02T09:47:24.355Z,3792.00
2022-10-02T09:52:25.158Z,1499.00
2022-10-02T09:57:25.955Z,5500.00
2022-10-02T10:02:27.544Z,3208.00
2022-10-02T10:07:27.354Z,2653.00
2022-10-02T10:12:28.172Z,1959.00
2022-10-02T10:17:28.991Z,1016.00
2022-10-02T10:22:34.969Z,394.00
2022-10-02T10:27:30.169Z,259.00
2022-10-02T10:32:30.785Z,1084.00
2022-10-02T10:37:31.443Z,8951.00
2022-10-02T10:42:44.733Z,7425.00
2022-10-02T10:47:33.707Z,2590.00
2022-10-02T10:52:33.396Z,3629.00
2022-10-02T10:57:34.017Z,3518.00
2022-10-02T11:02:34.701Z,2188.00
2022-10-02T11:07:35.371Z,1349.00
2022-10-02T11:12:36.029Z,1251.00
2022-10-02T11:17:36.746Z,1013.00
2022-10-02T11:22:37.414Z,1003.00
2022-10-02T11:27:38.058Z,900.00
2022-10-02T11:32:38.715Z,986.00
2022-10-02T11:37:39.372Z,544.00
2022-10-02T11:42:40.102Z,6062.00
2022-10-02T11:47:40.833Z,6173.00
2022-10-02T11:52:45.927Z,5874.00
2022-10-02T11:57:43.052Z,5818.00
2022-10-02T12:02:42.826Z,6050.00
2022-10-02T12:07:43.515Z,5762.00
2022-10-02T12:12:44.228Z,5917.00
2022-10-02T12:17:44.915Z,4743.00
2022-10-02T12:22:45.624Z,1234.00
2022-10-02T12:27:46.372Z,2401.00
2022-10-02T12:32:47.205Z,6070.00
2022-10-02T12:37:47.876Z,6977.00
2022-10-02T12:42:48.533Z,6068.00
2022-10-02T12:47:49.277Z,6447.00
2022-10-02T12:52:50.089Z,5990.00
2022-10-02T12:57:57.703Z,6222.00
2022-10-02T13:03:01.806Z,4853.00
2022-10-02T13:07:53.057Z,6483.00
2022-10-02T13:12:52.795Z,6755.00
2022-10-02T13:17:53.406Z,4097.00
2022-10-02T13:22:54.112Z,2089.00
2022-10-02T13:27:54.902Z,1788.00
2022-10-02T13:32:55.839Z,1020.00
2022-10-02T13:37:56.611Z,1327.00
2022-10-02T13:42:57.556Z,1357.00
2022-10-02T13:47:58.198Z,1442.00
2022-10-02T13:52:58.948Z,525.00
2022-10-02T13:57:59.807Z,3436.00
2022-10-02T14:03:00.683Z,1109.00
2022-10-02T14:08:01.458Z,3689.00
2022-10-02T14:13:02.181Z,2674.00
2022-10-02T14:18:02.881Z,4315.00
2022-10-02T14:23:04.549Z,4662.00
2022-10-02T14:28:04.185Z,4668.00
2022-10-02T14:33:04.803Z,3822.00
2022-10-02T14:38:05.506Z,1827.00
2022-10-02T14:43:06.151Z,4280.00
2022-10-02T14:48:06.985Z,3271.00
2022-10-02T14:53:07.732Z,2831.00
2022-10-02T14:58:08.418Z,3371.00
2022-10-02T15:03:10.051Z,2735.00
2022-10-02T15:08:09.685Z,2308.00
2022-10-02T15:13:10.527Z,2138.00
2022-10-02T15:18:11.209Z,1486.00
2022-10-02T15:23:11.857Z,852.00
2022-10-02T15:28:35.408Z,304.00
2022-10-02T15:33:14.123Z,1380.00
2022-10-02T15:38:13.764Z,1263.00
2022-10-02T15:43:14.489Z,264.00
2022-10-02T15:48:15.194Z,1478.00
2022-10-02T15:53:15.849Z,991.00
2022-10-02T15:58:16.506Z,647.00
2022-10-02T16:03:17.248Z,609.00
2022-10-02T16:08:17.926Z,850.00
2022-10-02T16:13:18.669Z,529.00
2022-10-02T16:18:19.321Z,479.00
2022-10-02T16:23:20.002Z,278.00
2022-10-02T16:28:20.885Z,248.00
2022-10-02T16:33:21.669Z,205.00
2022-10-02T16:38:22.346Z,152.00
2022-10-02T16:43:23.083Z,97.00
2022-10-02T16:48:23.754Z,62.00
2022-10-02T16:53:24.529Z,41.00
2022-10-02T16:58:25.223Z,21.00
2022-10-02T17:03:25.915Z,11.00
2022-10-02T17:08:26.751Z,4.00
2022-10-02T17:13:27.504Z,2.00
2022-10-02T17:18:28.305Z,0.00
2022-10-02T17:23:29.160Z,0.00
2022-10-02T17:28:30.215Z,0.00
2022-10-02T17:33:35.215Z,0.00
2022-10-02T17:38:31.123Z,0.00
2022-10-02T17:43:31.881Z,0.00
2022-10-02T17:48:32.792Z,0.00
2022-10-02T17:53:36.836Z,0.00
2022-10-02T17:58:34.703Z,0.00
2022-10-02T18:03:35.204Z,0.00
2022-10-02T18:08:35.635Z,0.00
2022-10-02T18:13:36.364Z,0.00
2022-10-02T18:18:37.144Z,0.00
2022-10-02T18:23:37.863Z,0.00
2022-10-02T18:28:38.570Z,0.00
2022-10-02T18:33:39.313Z,0.00
2022-10-02T18:38:40.047Z,0.00
2022-10-02T18:43:40.802Z,0.00
2022-10-02T18:48:41.534Z,0.00
2022-10-02T18:53:42.318Z,0.00
2022-10-02T18:58:43.083Z,0.00
2022-10-02T19:03:43.778Z,0.00
2022-10-02T19:08:44.683Z,0.00
2022-10-02T19:13:45.485Z,0.00
2022-10-02T19:18:46.236Z,0.00
2022-10-02T19:23:49.221Z,0.00
2022-10-02T19:28:47.629Z,0.00
2022-10-02T19:33:48.405Z,0.00
2022-10-02T19:38:49.291Z,0.00
2022-10-02T19:43:50.089Z,0.00
2022-10-02T19:48:51.048Z,0.00
2022-10-02T19:53:51.495Z,0.00
2022-10-02T19:58:51.883Z,0.00
2022-10-02T20:03:52.901Z,0.00
2022-10-02T20:09:00.079Z,0.00
2022-10-02T20:13:53.746Z,0.00
2022-10-02T20:18:54.474Z,0.00
2022-10-02T20:23:55.236Z,0.00
2022-10-02T20:28:56.048Z,0.00
2022-10-02T20:33:56.704Z,0.00
2022-10-02T20:38:57.654Z,0.00
2022-10-02T20:43:58.039Z,0.00
2022-10-02T20:49:13.505Z,0.00
2022-10-02T20:54:00.332Z,0.00
2022-10-02T20:59:00.291Z,0.00
2022-10-02T21:04:01.111Z,0.00
2022-10-02T21:09:01.919Z,0.00
2022-10-02T21:14:02.743Z,0.00
2022-10-02T21:19:03.422Z,0.00
2022-10-02T21:24:04.252Z,0.00
2022-10-02T21:29:05.010Z,0.00
2022-10-02T21:34:05.986Z,0.00
2022-10-02T21:39:06.278Z,0.00
2022-10-02T21:44:07.041Z,0.00
2022-10-02T21:49:07.877Z,0.00
2022-10-02T21:54:08.682Z,0.00
2022-10-02T21:59:09.406Z,0.00
2022-10-02T22:04:10.130Z,0.00
2022-10-02T22:09:10.995Z,0.00
2022-10-02T22:14:11.694Z,0.00
2022-10-02T22:19:14.720Z,0.00
2022-10-02T22:24:14.224Z,0.00
2022-10-02T22:29:14.190Z,0.00
2022-10-02T22:34:14.412Z,0.00
2022-10-02T22:39:15.172Z,0.00
2022-10-02T22:44:15.835Z,0.00
2022-10-02T22:49:16.611Z,0.00
2022-10-02T22:54:17.330Z,0.00
2022-10-02T22:59:18.058Z,0.00
2022-10-02T23:04:18.796Z,0.00
2022-10-02T23:09:19.493Z,0.00
2022-10-02T23:14:20.234Z,0.00
2022-10-02T23:19:20.913Z,0.00
2022-10-02T23:24:21.688Z,0.00
2022-10-02T23:29:22.435Z,0.00
2022-10-02T23:34:23.195Z,0.00
2022-10-02T23:39:23.909Z,0.00
2022-10-02T23:44:24.762Z,0.00
2022-10-02T23:49:25.456Z,0.00
2022-10-02T23:54:26.324Z,0.00
2022-10-02T23:59:27.131Z,0.00
